sensor_id;sensor_type;location;lat;lon;timestamp;P1;durP1;ratioP1;P2;durP2;ratioP2
66800;SDS011;53703;50.326;19.122;2023-09-12T00:03:02;23.30;;;14.10;;
66800;SDS011;53703;50.326;19.122;2023-09-12T00:05:53;25.70;;;15.00;;
66800;SDS011;53703;50.326;19.122;2023-09-12T00:08:47;24.20;;;14.60;;
66800;SDS011;53703;50.326;19.122;2023-09-12T00:11:41;26.40;;;14.70;;
66800;SDS011;53703;50.326;19.122;2023-09-12T00:14:35;24.70;;;14.20;;
66800;SDS011;53703;50.326;19.122;2023-09-12T00:17:29;23.30;;;15.20;;
66800;SDS011;53703;50.326;19.122;2023-09-12T00:20:23;24.90;;;14.50;;
66800;SDS011;53703;50.326;19.122;2023-09-12T00:23:17;23.60;;;14.70;;
66800;SDS011;53703;50.326;19.122;2023-09-12T00:26:12;27.00;;;15.60;;
66800;SDS011;53703;50.326;19.122;2023-09-12T00:29:06;21.70;;;14.30;;
66800;SDS011;53703;50.326;19.122;2023-09-12T00:32:00;27.10;;;16.10;;
66800;SDS011;53703;50.326;19.122;2023-09-12T00:34:54;26.20;;;15.10;;
66800;SDS011;53703;50.326;19.122;2023-09-12T00:37:48;24.30;;;14.40;;
66800;SDS011;53703;50.326;19.122;2023-09-12T00:40:41;27.80;;;14.60;;
66800;SDS011;53703;50.326;19.122;2023-09-12T00:43:35;24.00;;;14.80;;
66800;SDS011;53703;50.326;19.122;2023-09-12T00:46:29;25.20;;;14.10;;
66800;SDS011;53703;50.326;19.122;2023-09-12T00:49:23;25.50;;;14.20;;
66800;SDS011;53703;50.326;19.122;2023-09-12T00:52:20;25.50;;;15.00;;
66800;SDS011;53703;50.326;19.122;2023-09-12T00:55:14;30.40;;;15.60;;
66800;SDS011;53703;50.326;19.122;2023-09-12T00:58:08;25.20;;;14.90;;
66800;SDS011;53703;50.326;19.122;2023-09-12T01:01:02;27.50;;;15.10;;
66800;SDS011;53703;50.326;19.122;2023-09-12T01:03:57;26.00;;;14.90;;
66800;SDS011;53703;50.326;19.122;2023-09-12T01:06:53;26.80;;;15.20;;
66800;SDS011;53703;50.326;19.122;2023-09-12T01:09:47;23.90;;;14.30;;
66800;SDS011;53703;50.326;19.122;2023-09-12T01:12:41;25.30;;;15.30;;
66800;SDS011;53703;50.326;19.122;2023-09-12T01:15:35;26.20;;;14.60;;
66800;SDS011;53703;50.326;19.122;2023-09-12T01:18:29;25.20;;;14.70;;
66800;SDS011;53703;50.326;19.122;2023-09-12T01:25:45;25.00;;;14.60;;
66800;SDS011;53703;50.326;19.122;2023-09-12T01:28:58;22.70;;;14.60;;
66800;SDS011;53703;50.326;19.122;2023-09-12T01:31:54;25.60;;;14.70;;
66800;SDS011;53703;50.326;19.122;2023-09-12T01:34:49;25.90;;;15.10;;
66800;SDS011;53703;50.326;19.122;2023-09-12T01:37:43;28.60;;;14.80;;
66800;SDS011;53703;50.326;19.122;2023-09-12T01:40:40;29.20;;;15.00;;
66800;SDS011;53703;50.326;19.122;2023-09-12T01:43:53;29.60;;;15.70;;
66800;SDS011;53703;50.326;19.122;2023-09-12T01:46:49;25.90;;;14.70;;
66800;SDS011;53703;50.326;19.122;2023-09-12T01:49:47;26.60;;;16.60;;
66800;SDS011;53703;50.326;19.122;2023-09-12T01:52:44;25.30;;;14.90;;
66800;SDS011;53703;50.326;19.122;2023-09-12T01:55:38;26.90;;;15.70;;
66800;SDS011;53703;50.326;19.122;2023-09-12T01:58:32;27.70;;;15.80;;
66800;SDS011;53703;50.326;19.122;2023-09-12T02:01:27;28.30;;;15.30;;
66800;SDS011;53703;50.326;19.122;2023-09-12T02:04:21;30.80;;;16.10;;
66800;SDS011;53703;50.326;19.122;2023-09-12T02:07:15;29.50;;;16.00;;
66800;SDS011;53703;50.326;19.122;2023-09-12T02:10:10;27.70;;;16.00;;
66800;SDS011;53703;50.326;19.122;2023-09-12T02:13:04;27.50;;;16.40;;
66800;SDS011;53703;50.326;19.122;2023-09-12T02:16:01;26.30;;;16.20;;
66800;SDS011;53703;50.326;19.122;2023-09-12T02:18:56;26.20;;;15.60;;
66800;SDS011;53703;50.326;19.122;2023-09-12T02:21:49;31.40;;;17.30;;
66800;SDS011;53703;50.326;19.122;2023-09-12T02:24:43;31.30;;;16.50;;
66800;SDS011;53703;50.326;19.122;2023-09-12T02:27:37;25.70;;;15.60;;
66800;SDS011;53703;50.326;19.122;2023-09-12T02:30:31;27.50;;;16.20;;
66800;SDS011;53703;50.326;19.122;2023-09-12T02:33:25;29.50;;;16.50;;
66800;SDS011;53703;50.326;19.122;2023-09-12T02:36:19;29.40;;;16.60;;
66800;SDS011;53703;50.326;19.122;2023-09-12T02:39:13;29.80;;;16.50;;
66800;SDS011;53703;50.326;19.122;2023-09-12T02:42:07;28.40;;;16.60;;
66800;SDS011;53703;50.326;19.122;2023-09-12T02:45:01;29.80;;;16.20;;
66800;SDS011;53703;50.326;19.122;2023-09-12T02:47:55;29.10;;;16.90;;
66800;SDS011;53703;50.326;19.122;2023-09-12T02:50:50;30.60;;;16.80;;
66800;SDS011;53703;50.326;19.122;2023-09-12T02:53:44;30.00;;;16.40;;
66800;SDS011;53703;50.326;19.122;2023-09-12T02:56:38;34.80;;;16.70;;
66800;SDS011;53703;50.326;19.122;2023-09-12T02:59:32;26.90;;;15.20;;
66800;SDS011;53703;50.326;19.122;2023-09-12T03:02:26;24.60;;;15.40;;
66800;SDS011;53703;50.326;19.122;2023-09-12T03:05:21;29.50;;;16.00;;
66800;SDS011;53703;50.326;19.122;2023-09-12T03:08:15;27.90;;;16.30;;
66800;SDS011;53703;50.326;19.122;2023-09-12T03:11:09;28.70;;;16.00;;
66800;SDS011;53703;50.326;19.122;2023-09-12T03:14:03;26.60;;;16.80;;
66800;SDS011;53703;50.326;19.122;2023-09-12T03:16:57;26.90;;;15.60;;
66800;SDS011;53703;50.326;19.122;2023-09-12T03:19:51;27.20;;;15.00;;
66800;SDS011;53703;50.326;19.122;2023-09-12T03:22:46;25.60;;;15.10;;
66800;SDS011;53703;50.326;19.122;2023-09-12T03:25:40;26.60;;;14.80;;
66800;SDS011;53703;50.326;19.122;2023-09-12T03:28:34;29.10;;;15.20;;
66800;SDS011;53703;50.326;19.122;2023-09-12T03:31:28;25.90;;;15.10;;
66800;SDS011;53703;50.326;19.122;2023-09-12T03:34:23;26.80;;;15.30;;
66800;SDS011;53703;50.326;19.122;2023-09-12T03:37:17;26.70;;;14.60;;
66800;SDS011;53703;50.326;19.122;2023-09-12T03:40:13;24.60;;;15.20;;
66800;SDS011;53703;50.326;19.122;2023-09-12T03:43:07;29.50;;;16.60;;
66800;SDS011;53703;50.326;19.122;2023-09-12T03:45:47;27.30;;;15.40;;
66800;SDS011;53703;50.326;19.122;2023-09-12T03:48:41;28.60;;;15.80;;
66800;SDS011;53703;50.326;19.122;2023-09-12T03:51:36;25.30;;;15.10;;
66800;SDS011;53703;50.326;19.122;2023-09-12T03:54:30;27.70;;;16.80;;
66800;SDS011;53703;50.326;19.122;2023-09-12T03:57:23;29.50;;;15.90;;
66800;SDS011;53703;50.326;19.122;2023-09-12T04:00:18;28.70;;;16.50;;
66800;SDS011;53703;50.326;19.122;2023-09-12T04:03:12;26.10;;;15.30;;
66800;SDS011;53703;50.326;19.122;2023-09-12T04:06:07;28.00;;;15.60;;
66800;SDS011;53703;50.326;19.122;2023-09-12T04:09:01;27.00;;;15.10;;
66800;SDS011;53703;50.326;19.122;2023-09-12T04:11:55;27.20;;;15.50;;
66800;SDS011;53703;50.326;19.122;2023-09-12T04:14:50;26.20;;;15.90;;
66800;SDS011;53703;50.326;19.122;2023-09-12T04:17:45;29.60;;;14.90;;
66800;SDS011;53703;50.326;19.122;2023-09-12T04:20:40;30.60;;;15.10;;
66800;SDS011;53703;50.326;19.122;2023-09-12T04:23:34;28.90;;;16.00;;
66800;SDS011;53703;50.326;19.122;2023-09-12T04:26:28;29.50;;;15.90;;
66800;SDS011;53703;50.326;19.122;2023-09-12T04:29:21;28.90;;;16.40;;
66800;SDS011;53703;50.326;19.122;2023-09-12T04:32:16;33.60;;;16.70;;
66800;SDS011;53703;50.326;19.122;2023-09-12T04:35:14;26.20;;;15.20;;
66800;SDS011;53703;50.326;19.122;2023-09-12T04:38:10;25.90;;;15.80;;
66800;SDS011;53703;50.326;19.122;2023-09-12T04:41:06;29.00;;;15.50;;
66800;SDS011;53703;50.326;19.122;2023-09-12T04:44:00;30.60;;;16.10;;
66800;SDS011;53703;50.326;19.122;2023-09-12T04:46:55;30.50;;;15.70;;
66800;SDS011;53703;50.326;19.122;2023-09-12T04:49:49;27.60;;;14.80;;
66800;SDS011;53703;50.326;19.122;2023-09-12T04:52:44;27.80;;;15.70;;
66800;SDS011;53703;50.326;19.122;2023-09-12T04:55:38;29.20;;;16.40;;
66800;SDS011;53703;50.326;19.122;2023-09-12T04:58:32;28.90;;;15.80;;
66800;SDS011;53703;50.326;19.122;2023-09-12T05:01:26;29.40;;;15.20;;
66800;SDS011;53703;50.326;19.122;2023-09-12T05:04:20;26.20;;;15.90;;
66800;SDS011;53703;50.326;19.122;2023-09-12T05:07:14;30.10;;;17.00;;
66800;SDS011;53703;50.326;19.122;2023-09-12T05:10:08;26.90;;;15.20;;
66800;SDS011;53703;50.326;19.122;2023-09-12T05:13:02;29.70;;;15.70;;
66800;SDS011;53703;50.326;19.122;2023-09-12T05:15:57;27.90;;;16.10;;
66800;SDS011;53703;50.326;19.122;2023-09-12T05:18:51;29.20;;;16.40;;
66800;SDS011;53703;50.326;19.122;2023-09-12T05:21:45;30.60;;;15.80;;
66800;SDS011;53703;50.326;19.122;2023-09-12T05:24:39;28.90;;;16.00;;
66800;SDS011;53703;50.326;19.122;2023-09-12T05:27:33;31.70;;;15.20;;
66800;SDS011;53703;50.326;19.122;2023-09-12T05:30:27;30.60;;;16.00;;
66800;SDS011;53703;50.326;19.122;2023-09-12T05:33:22;30.40;;;16.30;;
66800;SDS011;53703;50.326;19.122;2023-09-12T05:36:16;25.00;;;15.40;;
66800;SDS011;53703;50.326;19.122;2023-09-12T05:39:10;29.50;;;15.80;;
66800;SDS011;53703;50.326;19.122;2023-09-12T05:42:05;30.50;;;15.80;;
66800;SDS011;53703;50.326;19.122;2023-09-12T05:44:59;26.70;;;15.70;;
66800;SDS011;53703;50.326;19.122;2023-09-12T05:47:53;31.20;;;17.10;;
66800;SDS011;53703;50.326;19.122;2023-09-12T05:50:48;28.40;;;15.90;;
66800;SDS011;53703;50.326;19.122;2023-09-12T05:53:42;29.20;;;16.10;;
66800;SDS011;53703;50.326;19.122;2023-09-12T05:56:35;35.30;;;16.70;;
66800;SDS011;53703;50.326;19.122;2023-09-12T05:59:29;30.40;;;17.00;;
66800;SDS011;53703;50.326;19.122;2023-09-12T06:02:24;30.70;;;16.30;;
66800;SDS011;53703;50.326;19.122;2023-09-12T06:05:18;28.50;;;16.90;;
66800;SDS011;53703;50.326;19.122;2023-09-12T06:08:11;27.40;;;15.90;;
66800;SDS011;53703;50.326;19.122;2023-09-12T06:11:05;26.60;;;16.60;;
66800;SDS011;53703;50.326;19.122;2023-09-12T06:13:59;30.10;;;17.10;;
66800;SDS011;53703;50.326;19.122;2023-09-12T06:16:38;29.60;;;17.50;;
66800;SDS011;53703;50.326;19.122;2023-09-12T06:19:32;36.80;;;17.50;;
66800;SDS011;53703;50.326;19.122;2023-09-12T06:22:26;28.30;;;17.20;;
66800;SDS011;53703;50.326;19.122;2023-09-12T06:25:23;35.70;;;18.40;;
66800;SDS011;53703;50.326;19.122;2023-09-12T06:28:25;34.80;;;18.90;;
66800;SDS011;53703;50.326;19.122;2023-09-12T06:31:21;32.40;;;18.90;;
66800;SDS011;53703;50.326;19.122;2023-09-12T06:34:15;32.70;;;19.20;;
66800;SDS011;53703;50.326;19.122;2023-09-12T06:37:08;31.90;;;18.40;;
66800;SDS011;53703;50.326;19.122;2023-09-12T06:40:04;31.10;;;17.00;;
66800;SDS011;53703;50.326;19.122;2023-09-12T06:43:01;34.30;;;18.60;;
66800;SDS011;53703;50.326;19.122;2023-09-12T06:45:55;37.00;;;21.20;;
66800;SDS011;53703;50.326;19.122;2023-09-12T06:48:49;35.00;;;19.00;;
66800;SDS011;53703;50.326;19.122;2023-09-12T06:51:43;31.80;;;18.80;;
66800;SDS011;53703;50.326;19.122;2023-09-12T06:54:40;37.00;;;20.10;;
66800;SDS011;53703;50.326;19.122;2023-09-12T06:57:34;37.00;;;19.00;;
66800;SDS011;53703;50.326;19.122;2023-09-12T07:00:13;31.10;;;18.60;;
66800;SDS011;53703;50.326;19.122;2023-09-12T07:06:05;30.80;;;16.80;;
66800;SDS011;53703;50.326;19.122;2023-09-12T07:08:59;35.00;;;18.20;;
66800;SDS011;53703;50.326;19.122;2023-09-12T07:11:54;30.10;;;18.10;;
66800;SDS011;53703;50.326;19.122;2023-09-12T07:14:48;32.30;;;17.40;;
66800;SDS011;53703;50.326;19.122;2023-09-12T07:17:42;30.50;;;17.00;;
66800;SDS011;53703;50.326;19.122;2023-09-12T07:20:36;29.90;;;16.40;;
66800;SDS011;53703;50.326;19.122;2023-09-12T07:23:31;32.70;;;17.10;;
66800;SDS011;53703;50.326;19.122;2023-09-12T07:26:25;30.00;;;17.30;;
66800;SDS011;53703;50.326;19.122;2023-09-12T07:29:19;32.70;;;16.20;;
66800;SDS011;53703;50.326;19.122;2023-09-12T07:32:13;31.80;;;18.00;;
66800;SDS011;53703;50.326;19.122;2023-09-12T07:35:08;31.20;;;16.20;;
66800;SDS011;53703;50.326;19.122;2023-09-12T07:38:02;29.80;;;17.50;;
66800;SDS011;53703;50.326;19.122;2023-09-12T07:40:57;27.30;;;16.10;;
66800;SDS011;53703;50.326;19.122;2023-09-12T07:43:52;31.10;;;17.40;;
66800;SDS011;53703;50.326;19.122;2023-09-12T07:46:46;30.60;;;17.20;;
66800;SDS011;53703;50.326;19.122;2023-09-12T07:49:40;28.40;;;17.10;;
66800;SDS011;53703;50.326;19.122;2023-09-12T07:52:34;27.40;;;16.00;;
66800;SDS011;53703;50.326;19.122;2023-09-12T07:55:31;24.70;;;14.90;;
66800;SDS011;53703;50.326;19.122;2023-09-12T07:58:36;25.50;;;15.30;;
66800;SDS011;53703;50.326;19.122;2023-09-12T08:01:30;26.60;;;15.90;;
66800;SDS011;53703;50.326;19.122;2023-09-12T08:04:24;25.00;;;15.00;;
66800;SDS011;53703;50.326;19.122;2023-09-12T08:07:18;27.50;;;15.80;;
66800;SDS011;53703;50.326;19.122;2023-09-12T08:10:13;23.70;;;15.50;;
66800;SDS011;53703;50.326;19.122;2023-09-12T08:13:07;26.70;;;16.60;;
66800;SDS011;53703;50.326;19.122;2023-09-12T08:16:01;27.00;;;15.90;;
66800;SDS011;53703;50.326;19.122;2023-09-12T08:18:55;25.20;;;15.10;;
66800;SDS011;53703;50.326;19.122;2023-09-12T08:21:49;24.10;;;14.80;;
66800;SDS011;53703;50.326;19.122;2023-09-12T08:24:43;25.40;;;16.10;;
66800;SDS011;53703;50.326;19.122;2023-09-12T08:27:37;24.20;;;14.90;;
66800;SDS011;53703;50.326;19.122;2023-09-12T08:30:31;24.00;;;15.00;;
66800;SDS011;53703;50.326;19.122;2023-09-12T08:33:25;25.20;;;14.40;;
66800;SDS011;53703;50.326;19.122;2023-09-12T08:36:19;22.10;;;14.20;;
66800;SDS011;53703;50.326;19.122;2023-09-12T08:39:16;24.50;;;14.70;;
66800;SDS011;53703;50.326;19.122;2023-09-12T08:42:15;24.20;;;14.60;;
66800;SDS011;53703;50.326;19.122;2023-09-12T08:45:13;23.90;;;14.10;;
66800;SDS011;53703;50.326;19.122;2023-09-12T08:48:27;28.00;;;15.00;;
66800;SDS011;53703;50.326;19.122;2023-09-12T08:51:24;25.00;;;13.90;;
66800;SDS011;53703;50.326;19.122;2023-09-12T08:54:19;24.00;;;14.40;;
66800;SDS011;53703;50.326;19.122;2023-09-12T08:57:04;22.10;;;13.40;;
66800;SDS011;53703;50.326;19.122;2023-09-12T08:59:59;26.60;;;13.90;;
66800;SDS011;53703;50.326;19.122;2023-09-12T09:02:56;21.90;;;14.00;;
66800;SDS011;53703;50.326;19.122;2023-09-12T09:05:51;23.30;;;14.20;;
66800;SDS011;53703;50.326;19.122;2023-09-12T09:08:46;22.80;;;14.80;;
66800;SDS011;53703;50.326;19.122;2023-09-12T09:11:41;20.90;;;13.80;;
66800;SDS011;53703;50.326;19.122;2023-09-12T09:14:35;24.10;;;14.30;;
66800;SDS011;53703;50.326;19.122;2023-09-12T09:17:29;26.00;;;14.80;;
66800;SDS011;53703;50.326;19.122;2023-09-12T09:20:28;22.10;;;14.20;;
66800;SDS011;53703;50.326;19.122;2023-09-12T09:23:14;24.20;;;14.50;;
66800;SDS011;53703;50.326;19.122;2023-09-12T09:26:07;26.20;;;14.60;;
66800;SDS011;53703;50.326;19.122;2023-09-12T09:29:08;20.60;;;13.60;;
66800;SDS011;53703;50.326;19.122;2023-09-12T09:32:03;22.40;;;14.50;;
66800;SDS011;53703;50.326;19.122;2023-09-12T09:35:09;23.80;;;14.30;;
66800;SDS011;53703;50.326;19.122;2023-09-12T09:38:05;32.70;;;14.30;;
66800;SDS011;53703;50.326;19.122;2023-09-12T09:40:59;23.30;;;14.90;;
66800;SDS011;53703;50.326;19.122;2023-09-12T09:43:55;22.60;;;13.50;;
66800;SDS011;53703;50.326;19.122;2023-09-12T09:46:54;22.00;;;13.90;;
66800;SDS011;53703;50.326;19.122;2023-09-12T09:49:54;20.50;;;13.10;;
66800;SDS011;53703;50.326;19.122;2023-09-12T09:52:54;24.10;;;13.00;;
66800;SDS011;53703;50.326;19.122;2023-09-12T09:55:48;17.50;;;12.10;;
66800;SDS011;53703;50.326;19.122;2023-09-12T09:58:49;20.50;;;12.80;;
66800;SDS011;53703;50.326;19.122;2023-09-12T10:01:45;15.40;;;11.10;;
66800;SDS011;53703;50.326;19.122;2023-09-12T10:04:40;17.60;;;12.00;;
66800;SDS011;53703;50.326;19.122;2023-09-12T10:07:37;18.10;;;11.80;;
66800;SDS011;53703;50.326;19.122;2023-09-12T10:10:32;15.10;;;10.60;;
66800;SDS011;53703;50.326;19.122;2023-09-12T10:13:27;17.70;;;11.50;;
66800;SDS011;53703;50.326;19.122;2023-09-12T10:16:24;17.70;;;11.60;;
66800;SDS011;53703;50.326;19.122;2023-09-12T10:19:23;16.10;;;11.20;;
66800;SDS011;53703;50.326;19.122;2023-09-12T10:22:20;16.30;;;10.80;;
66800;SDS011;53703;50.326;19.122;2023-09-12T10:25:17;15.50;;;11.20;;
66800;SDS011;53703;50.326;19.122;2023-09-12T10:28:12;20.70;;;11.10;;
66800;SDS011;53703;50.326;19.122;2023-09-12T10:31:06;17.80;;;11.20;;
66800;SDS011;53703;50.326;19.122;2023-09-12T10:34:03;15.00;;;11.30;;
66800;SDS011;53703;50.326;19.122;2023-09-12T10:37:00;17.20;;;11.70;;
66800;SDS011;53703;50.326;19.122;2023-09-12T10:39:57;16.60;;;10.90;;
66800;SDS011;53703;50.326;19.122;2023-09-12T10:42:54;15.60;;;10.00;;
66800;SDS011;53703;50.326;19.122;2023-09-12T10:45:49;16.70;;;12.20;;
66800;SDS011;53703;50.326;19.122;2023-09-12T10:48:43;20.70;;;11.10;;
66800;SDS011;53703;50.326;19.122;2023-09-12T10:51:40;17.90;;;11.10;;
66800;SDS011;53703;50.326;19.122;2023-09-12T10:54:39;20.20;;;11.10;;
66800;SDS011;53703;50.326;19.122;2023-09-12T10:57:34;16.60;;;10.90;;
66800;SDS011;53703;50.326;19.122;2023-09-12T11:04:35;21.00;;;13.20;;
66800;SDS011;53703;50.326;19.122;2023-09-12T11:07:43;18.90;;;13.00;;
66800;SDS011;53703;50.326;19.122;2023-09-12T11:10:37;19.90;;;13.40;;
66800;SDS011;53703;50.326;19.122;2023-09-12T11:13:35;19.50;;;13.70;;
66800;SDS011;53703;50.326;19.122;2023-09-12T11:16:33;20.00;;;13.00;;
66800;SDS011;53703;50.326;19.122;2023-09-12T11:19:27;17.50;;;12.00;;
66800;SDS011;53703;50.326;19.122;2023-09-12T11:22:30;18.40;;;12.70;;
66800;SDS011;53703;50.326;19.122;2023-09-12T11:25:26;20.10;;;12.70;;
66800;SDS011;53703;50.326;19.122;2023-09-12T11:28:22;18.70;;;12.40;;
66800;SDS011;53703;50.326;19.122;2023-09-12T11:31:27;17.70;;;12.60;;
66800;SDS011;53703;50.326;19.122;2023-09-12T11:34:22;17.50;;;12.30;;
66800;SDS011;53703;50.326;19.122;2023-09-12T11:37:25;17.20;;;12.60;;
66800;SDS011;53703;50.326;19.122;2023-09-12T11:40:25;18.70;;;12.80;;
66800;SDS011;53703;50.326;19.122;2023-09-12T11:43:34;17.80;;;11.90;;
66800;SDS011;53703;50.326;19.122;2023-09-12T11:46:32;20.70;;;12.20;;
66800;SDS011;53703;50.326;19.122;2023-09-12T11:49:26;18.70;;;12.50;;
66800;SDS011;53703;50.326;19.122;2023-09-12T11:52:20;18.60;;;11.80;;
66800;SDS011;53703;50.326;19.122;2023-09-12T11:55:24;18.00;;;12.10;;
66800;SDS011;53703;50.326;19.122;2023-09-12T11:58:20;17.70;;;12.10;;
66800;SDS011;53703;50.326;19.122;2023-09-12T12:01:14;17.90;;;11.70;;
66800;SDS011;53703;50.326;19.122;2023-09-12T12:04:08;18.40;;;12.50;;
66800;SDS011;53703;50.326;19.122;2023-09-12T12:07:03;16.90;;;11.00;;
66800;SDS011;53703;50.326;19.122;2023-09-12T12:09:58;16.40;;;11.50;;
66800;SDS011;53703;50.326;19.122;2023-09-12T12:12:55;19.00;;;11.10;;
66800;SDS011;53703;50.326;19.122;2023-09-12T12:15:49;17.40;;;11.50;;
66800;SDS011;53703;50.326;19.122;2023-09-12T12:18:43;19.00;;;11.40;;
66800;SDS011;53703;50.326;19.122;2023-09-12T12:21:37;17.30;;;11.90;;
66800;SDS011;53703;50.326;19.122;2023-09-12T12:24:39;16.20;;;10.80;;
66800;SDS011;53703;50.326;19.122;2023-09-12T12:30:11;16.70;;;10.90;;
66800;SDS011;53703;50.326;19.122;2023-09-12T12:33:09;17.10;;;11.50;;
66800;SDS011;53703;50.326;19.122;2023-09-12T12:36:43;19.30;;;11.60;;
66800;SDS011;53703;50.326;19.122;2023-09-12T12:39:48;16.30;;;10.80;;
66800;SDS011;53703;50.326;19.122;2023-09-12T12:42:43;19.50;;;10.90;;
66800;SDS011;53703;50.326;19.122;2023-09-12T12:45:54;18.10;;;11.20;;
66800;SDS011;53703;50.326;19.122;2023-09-12T12:48:49;15.70;;;11.00;;
66800;SDS011;53703;50.326;19.122;2023-09-12T12:51:44;17.10;;;11.10;;
66800;SDS011;53703;50.326;19.122;2023-09-12T12:54:39;19.10;;;11.40;;
66800;SDS011;53703;50.326;19.122;2023-09-12T12:57:38;18.40;;;11.80;;
66800;SDS011;53703;50.326;19.122;2023-09-12T13:00:33;18.40;;;11.00;;
66800;SDS011;53703;50.326;19.122;2023-09-12T13:03:27;16.40;;;11.60;;
66800;SDS011;53703;50.326;19.122;2023-09-12T13:06:22;19.80;;;11.60;;
66800;SDS011;53703;50.326;19.122;2023-09-12T13:09:18;18.10;;;11.50;;
66800;SDS011;53703;50.326;19.122;2023-09-12T13:12:12;15.60;;;10.70;;
66800;SDS011;53703;50.326;19.122;2023-09-12T13:15:09;15.50;;;10.80;;
66800;SDS011;53703;50.326;19.122;2023-09-12T13:18:04;16.80;;;10.80;;
66800;SDS011;53703;50.326;19.122;2023-09-12T13:20:58;15.50;;;10.80;;
66800;SDS011;53703;50.326;19.122;2023-09-12T13:23:52;17.60;;;11.50;;
66800;SDS011;53703;50.326;19.122;2023-09-12T13:26:46;15.80;;;11.00;;
66800;SDS011;53703;50.326;19.122;2023-09-12T13:29:29;17.10;;;11.30;;
66800;SDS011;53703;50.326;19.122;2023-09-12T13:32:23;25.20;;;12.00;;
66800;SDS011;53703;50.326;19.122;2023-09-12T13:35:17;17.20;;;11.10;;
66800;SDS011;53703;50.326;19.122;2023-09-12T13:38:10;17.00;;;11.20;;
66800;SDS011;53703;50.326;19.122;2023-09-12T13:41:04;16.90;;;11.00;;
66800;SDS011;53703;50.326;19.122;2023-09-12T13:43:58;15.60;;;11.20;;
66800;SDS011;53703;50.326;19.122;2023-09-12T13:46:52;16.20;;;11.70;;
66800;SDS011;53703;50.326;19.122;2023-09-12T13:49:46;20.10;;;11.60;;
66800;SDS011;53703;50.326;19.122;2023-09-12T13:52:42;18.10;;;11.20;;
66800;SDS011;53703;50.326;19.122;2023-09-12T13:55:36;15.60;;;11.20;;
66800;SDS011;53703;50.326;19.122;2023-09-12T13:58:50;16.10;;;10.70;;
66800;SDS011;53703;50.326;19.122;2023-09-12T14:01:45;18.00;;;11.50;;
66800;SDS011;53703;50.326;19.122;2023-09-12T14:04:39;15.10;;;11.00;;
66800;SDS011;53703;50.326;19.122;2023-09-12T14:07:34;14.90;;;11.00;;
66800;SDS011;53703;50.326;19.122;2023-09-12T14:10:29;15.40;;;10.80;;
66800;SDS011;53703;50.326;19.122;2023-09-12T14:13:27;15.00;;;10.70;;
66800;SDS011;53703;50.326;19.122;2023-09-12T14:16:21;17.00;;;11.00;;
66800;SDS011;53703;50.326;19.122;2023-09-12T14:19:17;17.00;;;10.20;;
66800;SDS011;53703;50.326;19.122;2023-09-12T14:22:11;17.20;;;11.10;;
66800;SDS011;53703;50.326;19.122;2023-09-12T14:25:08;18.10;;;10.50;;
66800;SDS011;53703;50.326;19.122;2023-09-12T14:28:06;14.80;;;10.70;;
66800;SDS011;53703;50.326;19.122;2023-09-12T14:31:02;16.90;;;10.50;;
66800;SDS011;53703;50.326;19.122;2023-09-12T14:33:57;19.30;;;10.80;;
66800;SDS011;53703;50.326;19.122;2023-09-12T14:36:34;16.30;;;10.30;;
66800;SDS011;53703;50.326;19.122;2023-09-12T14:39:28;13.30;;;9.30;;
66800;SDS011;53703;50.326;19.122;2023-09-12T14:42:22;15.50;;;10.00;;
66800;SDS011;53703;50.326;19.122;2023-09-12T14:45:16;16.00;;;10.40;;
66800;SDS011;53703;50.326;19.122;2023-09-12T14:48:10;17.10;;;10.50;;
66800;SDS011;53703;50.326;19.122;2023-09-12T14:55:11;15.50;;;10.30;;
66800;SDS011;53703;50.326;19.122;2023-09-12T14:58:05;14.40;;;10.20;;
66800;SDS011;53703;50.326;19.122;2023-09-12T15:00:59;18.90;;;10.30;;
66800;SDS011;53703;50.326;19.122;2023-09-12T15:03:43;15.30;;;10.60;;
66800;SDS011;53703;50.326;19.122;2023-09-12T15:06:23;16.90;;;10.60;;
66800;SDS011;53703;50.326;19.122;2023-09-12T15:09:17;14.60;;;10.20;;
66800;SDS011;53703;50.326;19.122;2023-09-12T15:12:11;14.50;;;10.50;;
66800;SDS011;53703;50.326;19.122;2023-09-12T15:15:07;12.50;;;9.10;;
66800;SDS011;53703;50.326;19.122;2023-09-12T15:18:01;17.50;;;10.30;;
66800;SDS011;53703;50.326;19.122;2023-09-12T15:20:56;15.40;;;9.70;;
66800;SDS011;53703;50.326;19.122;2023-09-12T15:23:50;13.30;;;9.20;;
66800;SDS011;53703;50.326;19.122;2023-09-12T15:26:47;14.30;;;9.70;;
66800;SDS011;53703;50.326;19.122;2023-09-12T15:29:41;15.10;;;9.60;;
66800;SDS011;53703;50.326;19.122;2023-09-12T15:32:35;13.60;;;9.30;;
66800;SDS011;53703;50.326;19.122;2023-09-12T15:35:28;13.80;;;9.50;;
66800;SDS011;53703;50.326;19.122;2023-09-12T15:38:22;13.50;;;9.30;;
66800;SDS011;53703;50.326;19.122;2023-09-12T15:41:01;12.60;;;8.80;;
66800;SDS011;53703;50.326;19.122;2023-09-12T15:43:58;15.10;;;9.50;;
66800;SDS011;53703;50.326;19.122;2023-09-12T15:47:08;17.50;;;9.70;;
66800;SDS011;53703;50.326;19.122;2023-09-12T15:50:11;12.10;;;9.20;;
66800;SDS011;53703;50.326;19.122;2023-09-12T15:53:08;14.80;;;9.40;;
66800;SDS011;53703;50.326;19.122;2023-09-12T15:56:02;15.70;;;9.50;;
66800;SDS011;53703;50.326;19.122;2023-09-12T15:58:56;14.90;;;10.10;;
66800;SDS011;53703;50.326;19.122;2023-09-12T16:01:50;13.90;;;9.90;;
66800;SDS011;53703;50.326;19.122;2023-09-12T16:04:44;15.50;;;9.80;;
66800;SDS011;53703;50.326;19.122;2023-09-12T16:07:38;15.70;;;9.70;;
66800;SDS011;53703;50.326;19.122;2023-09-12T16:10:33;16.50;;;11.00;;
66800;SDS011;53703;50.326;19.122;2023-09-12T16:13:27;17.50;;;10.90;;
66800;SDS011;53703;50.326;19.122;2023-09-12T16:16:21;15.90;;;10.70;;
66800;SDS011;53703;50.326;19.122;2023-09-12T16:19:15;16.30;;;11.00;;
66800;SDS011;53703;50.326;19.122;2023-09-12T16:22:09;18.30;;;10.70;;
66800;SDS011;53703;50.326;19.122;2023-09-12T16:25:03;16.60;;;10.80;;
66800;SDS011;53703;50.326;19.122;2023-09-12T16:27:58;17.50;;;10.80;;
66800;SDS011;53703;50.326;19.122;2023-09-12T16:30:52;15.00;;;10.40;;
66800;SDS011;53703;50.326;19.122;2023-09-12T16:33:46;15.70;;;10.00;;
66800;SDS011;53703;50.326;19.122;2023-09-12T16:36:40;14.70;;;10.10;;
66800;SDS011;53703;50.326;19.122;2023-09-12T16:39:34;14.10;;;9.50;;
66800;SDS011;53703;50.326;19.122;2023-09-12T16:42:33;14.50;;;10.40;;
66800;SDS011;53703;50.326;19.122;2023-09-12T16:45:27;14.70;;;9.80;;
66800;SDS011;53703;50.326;19.122;2023-09-12T16:48:21;15.50;;;9.50;;
66800;SDS011;53703;50.326;19.122;2023-09-12T16:51:15;15.30;;;10.50;;
66800;SDS011;53703;50.326;19.122;2023-09-12T16:54:09;16.30;;;9.80;;
66800;SDS011;53703;50.326;19.122;2023-09-12T16:57:03;16.10;;;10.90;;
66800;SDS011;53703;50.326;19.122;2023-09-12T16:59:57;15.40;;;10.10;;
66800;SDS011;53703;50.326;19.122;2023-09-12T17:02:51;16.80;;;11.10;;
66800;SDS011;53703;50.326;19.122;2023-09-12T17:05:46;15.40;;;9.90;;
66800;SDS011;53703;50.326;19.122;2023-09-12T17:08:40;16.70;;;11.20;;